createdAt,value
2023-04-29T00:00:23.104Z,3.50
2023-04-29T00:02:53.908Z,2.63
2023-04-29T00:05:24.919Z,4.60
2023-04-29T00:07:57.671Z,5.25
2023-04-29T00:10:27.978Z,1.90
2023-04-29T00:12:58.161Z,3.47
2023-04-29T00:15:28.835Z,3.15
2023-04-29T00:17:59.694Z,2.53
2023-04-29T00:20:30.057Z,3.65
2023-04-29T00:23:01.607Z,3.55
2023-04-29T00:25:32.568Z,4.15
2023-04-29T00:28:03.856Z,3.60
2023-04-29T00:30:35.297Z,2.75
2023-04-29T00:33:06.249Z,3.75
2023-04-29T00:35:36.563Z,4.05
2023-04-29T00:38:07.290Z,3.40
2023-04-29T00:40:37.946Z,4.78
2023-04-29T00:43:08.981Z,5.13
2023-04-29T00:45:41.092Z,2.45
2023-04-29T00:48:11.704Z,2.47
2023-04-29T00:50:41.972Z,2.20
2023-04-29T00:53:15.805Z,4.63
2023-04-29T00:55:49.887Z,3.20
2023-04-29T00:58:22.423Z,6.63
2023-04-29T01:00:55.275Z,2.00
2023-04-29T01:03:28.384Z,2.33
2023-04-29T01:06:11.119Z,2.10
2023-04-29T01:09:13.014Z,2.63
2023-04-29T01:12:09.961Z,3.00
2023-04-29T01:14:45.613Z,4.32
2023-04-29T01:17:25.889Z,3.00
2023-04-29T01:19:59.851Z,3.35
2023-04-29T01:22:31.342Z,4.07
2023-04-29T01:25:01.626Z,3.17
2023-04-29T01:27:49.702Z,3.40
2023-04-29T01:30:32.546Z,5.40
2023-04-29T01:33:36.320Z,4.03
2023-04-29T01:36:29.238Z,2.30
2023-04-29T01:39:29.673Z,3.90
2023-04-29T01:42:13.903Z,2.20
2023-04-29T01:44:45.626Z,3.83
2023-04-29T01:47:19.691Z,5.43
2023-04-29T01:49:52.240Z,3.78
2023-04-29T01:52:23.388Z,2.33
2023-04-29T01:54:55.030Z,1.80
2023-04-29T01:57:25.833Z,1.83
2023-04-29T01:59:57.744Z,3.03
2023-04-29T02:02:28.568Z,2.00
2023-04-29T02:04:59.487Z,1.70
2023-04-29T02:07:46.547Z,3.67
2023-04-29T02:10:17.708Z,2.78
2023-04-29T02:12:49.607Z,1.85
2023-04-29T02:15:21.073Z,3.13
2023-04-29T02:17:52.841Z,2.30
2023-04-29T02:20:25.342Z,3.75
2023-04-29T02:22:56.482Z,4.40
2023-04-29T02:25:28.367Z,3.20
2023-04-29T02:27:58.988Z,3.88
2023-04-29T02:30:29.924Z,3.08
2023-04-29T02:33:01.852Z,2.45
2023-04-29T02:35:33.449Z,2.95
2023-04-29T02:38:04.549Z,5.00
2023-04-29T02:40:35.492Z,4.22
2023-04-29T02:43:07.958Z,3.05
2023-04-29T02:45:39.676Z,5.13
2023-04-29T02:48:10.961Z,4.13
2023-04-29T02:50:43.238Z,3.70
2023-04-29T02:53:16.432Z,5.13
2023-04-29T02:55:47.378Z,4.25
2023-04-29T02:58:17.633Z,2.65
2023-04-29T03:00:48.693Z,3.08
2023-04-29T03:03:21.664Z,3.97
2023-04-29T03:05:53.282Z,5.10
2023-04-29T03:08:30.510Z,3.38
2023-04-29T03:11:01.201Z,3.20
2023-04-29T03:13:33.400Z,2.22
2023-04-29T03:16:04.342Z,2.40
2023-04-29T03:18:35.070Z,2.20
2023-04-29T03:21:06.804Z,1.83
2023-04-29T03:23:37.511Z,1.25
2023-04-29T03:26:09.494Z,4.18
2023-04-29T03:28:41.191Z,2.92
2023-04-29T03:31:15.240Z,1.48
2023-04-29T03:33:46.204Z,3.35
2023-04-29T03:36:17.890Z,1.70
2023-04-29T03:38:48.799Z,3.67
2023-04-29T03:41:21.012Z,2.97
2023-04-29T03:43:54.407Z,3.65
2023-04-29T03:46:25.864Z,2.30
2023-04-29T03:48:59.965Z,1.98
2023-04-29T03:51:33.897Z,3.72
2023-04-29T03:54:04.790Z,3.97
2023-04-29T03:56:37.607Z,3.00
2023-04-29T03:59:08.751Z,2.83
2023-04-29T04:01:39.456Z,3.45
2023-04-29T04:04:11.736Z,1.77
2023-04-29T04:06:42.628Z,3.33
2023-04-29T04:09:13.334Z,3.70
2023-04-29T04:11:44.316Z,4.40
2023-04-29T04:14:15.162Z,3.28
2023-04-29T04:16:46.308Z,4.10
2023-04-29T04:19:18.887Z,2.80
2023-04-29T04:21:50.719Z,3.95
2023-04-29T04:24:21.366Z,1.17
2023-04-29T04:26:53.069Z,1.75
2023-04-29T04:29:25.004Z,2.38
2023-04-29T04:31:56.423Z,2.85
2023-04-29T04:34:29.266Z,2.33
2023-04-29T04:36:59.923Z,2.92
2023-04-29T04:39:30.793Z,3.40
2023-04-29T04:42:02.730Z,2.67
2023-04-29T04:44:33.763Z,1.83
2023-04-29T04:47:05.083Z,2.95
2023-04-29T04:49:36.031Z,2.45
2023-04-29T04:52:07.612Z,3.33
2023-04-29T04:54:38.519Z,1.35
2023-04-29T04:57:10.547Z,1.95
2023-04-29T04:59:42.834Z,0.68
2023-04-29T05:02:14.594Z,1.92
2023-04-29T05:04:46.279Z,1.58
2023-04-29T05:07:17.224Z,1.92
2023-04-29T05:09:47.932Z,2.92
2023-04-29T05:12:18.816Z,6.45
2023-04-29T05:14:50.352Z,3.80
2023-04-29T05:17:21.139Z,4.85
2023-04-29T05:19:52.556Z,5.55
2023-04-29T05:22:23.613Z,3.75
2023-04-29T05:24:55.268Z,2.58
2023-04-29T05:27:25.865Z,2.58
2023-04-29T05:29:56.255Z,2.92
2023-04-29T05:32:30.459Z,3.45
2023-04-29T05:35:00.978Z,4.35
2023-04-29T05:37:33.655Z,3.80
2023-04-29T05:40:04.621Z,3.38
2023-04-29T05:42:36.524Z,3.38
2023-04-29T05:45:08.405Z,2.92
2023-04-29T05:47:39.221Z,2.05
2023-04-29T05:50:10.756Z,1.67
2023-04-29T05:52:42.879Z,2.13
2023-04-29T05:55:13.953Z,5.07
2023-04-29T05:57:46.420Z,5.93
2023-04-29T06:00:19.515Z,9.45
2023-04-29T06:02:58.679Z,10.43
2023-04-29T06:05:31.758Z,12.00
2023-04-29T06:08:03.377Z,8.82
2023-04-29T06:10:35.461Z,7.18
2023-04-29T06:13:07.223Z,4.15
2023-04-29T06:15:39.315Z,6.00
2023-04-29T06:18:09.967Z,3.65
2023-04-29T06:20:41.447Z,2.33
2023-04-29T06:23:12.445Z,2.92
2023-04-29T06:25:43.269Z,4.38
2023-04-29T06:28:14.053Z,2.72
2023-04-29T06:30:46.004Z,5.28
2023-04-29T06:33:17.802Z,1.88
2023-04-29T06:35:48.592Z,1.73
2023-04-29T06:38:32.775Z,3.53
2023-04-29T06:41:04.556Z,4.88
2023-04-29T06:43:35.864Z,3.78
2023-04-29T06:46:08.985Z,4.97
2023-04-29T06:48:40.502Z,4.35
2023-04-29T06:51:11.627Z,2.25
2023-04-29T06:53:42.766Z,3.58
2023-04-29T06:56:15.021Z,4.90
2023-04-29T06:58:49.319Z,3.08
2023-04-29T07:01:20.134Z,5.07
2023-04-29T07:03:51.102Z,6.47
2023-04-29T07:06:21.836Z,4.50
2023-04-29T07:08:53.676Z,4.25
2023-04-29T07:11:27.140Z,5.63
2023-04-29T07:13:59.260Z,7.10
2023-04-29T07:16:30.692Z,3.75
2023-04-29T07:19:01.201Z,5.35
2023-04-29T07:21:33.029Z,3.40
2023-04-29T07:24:04.230Z,1.90
2023-04-29T07:26:35.035Z,2.90
2023-04-29T07:29:05.816Z,3.60
2023-04-29T07:31:38.017Z,2.83
2023-04-29T07:34:08.920Z,2.58
2023-04-29T07:36:39.647Z,3.95
2023-04-29T07:39:10.084Z,4.95
2023-04-29T07:41:40.409Z,2.85
2023-04-29T07:44:10.720Z,1.65
2023-04-29T07:46:41.136Z,2.65
2023-04-29T07:49:12.247Z,3.08
2023-04-29T07:51:45.892Z,3.70
2023-04-29T07:54:16.525Z,6.43
2023-04-29T07:56:48.032Z,3.97
2023-04-29T07:59:19.127Z,3.70
2023-04-29T08:01:49.639Z,3.53
2023-04-29T08:04:21.113Z,6.05
2023-04-29T08:06:51.913Z,3.70
2023-04-29T08:09:23.016Z,4.47
2023-04-29T08:11:53.691Z,5.03
2023-04-29T08:14:24.623Z,4.35
2023-04-29T08:16:56.236Z,3.50
2023-04-29T08:19:26.713Z,6.68
2023-04-29T08:21:57.831Z,3.72
2023-04-29T08:24:28.300Z,3.33
2023-04-29T08:26:59.043Z,3.70
2023-04-29T08:29:29.854Z,3.28
2023-04-29T08:32:00.748Z,4.22
2023-04-29T08:34:32.468Z,3.13
2023-04-29T08:37:03.012Z,2.00
2023-04-29T08:39:33.752Z,3.42
2023-04-29T08:42:12.967Z,4.32
2023-04-29T08:44:45.435Z,2.65
2023-04-29T08:47:16.743Z,4.35
2023-04-29T08:49:47.171Z,5.60
2023-04-29T08:52:18.877Z,2.65
2023-04-29T08:54:49.410Z,4.05
2023-04-29T08:57:20.445Z,3.20
2023-04-29T08:59:51.274Z,3.78
2023-04-29T09:02:23.364Z,5.78
2023-04-29T09:05:13.693Z,5.85
2023-04-29T09:07:46.172Z,7.10
2023-04-29T09:10:17.419Z,7.50
2023-04-29T09:12:50.006Z,9.65
2023-04-29T09:15:21.771Z,11.23
2023-04-29T09:17:52.580Z,11.73
2023-04-29T09:20:28.860Z,7.63
2023-04-29T09:23:07.016Z,9.15
2023-04-29T09:25:38.867Z,6.82
2023-04-29T09:28:19.806Z,6.68
2023-04-29T09:30:51.433Z,9.60
2023-04-29T09:33:24.193Z,6.72
2023-04-29T09:35:54.846Z,6.75
2023-04-29T09:38:34.641Z,6.82
2023-04-29T09:41:14.405Z,9.80
2023-04-29T09:43:48.160Z,11.30
2023-04-29T09:46:23.970Z,10.35
2023-04-29T09:48:55.915Z,7.28
2023-04-29T09:51:27.060Z,11.73
2023-04-29T09:53:57.370Z,6.50
2023-04-29T09:56:31.370Z,8.57
2023-04-29T09:59:11.730Z,5.40
2023-04-29T10:01:42.291Z,4.88
2023-04-29T10:04:16.034Z,7.45
2023-04-29T10:06:48.402Z,6.05
2023-04-29T10:09:20.579Z,5.72
2023-04-29T10:11:53.576Z,6.25
2023-04-29T10:14:29.462Z,6.55
2023-04-29T10:17:11.707Z,6.85
2023-04-29T10:20:09.143Z,7.28
2023-04-29T10:22:46.200Z,8.20
2023-04-29T10:25:20.417Z,6.57
2023-04-29T10:27:52.659Z,6.32
2023-04-29T10:30:24.958Z,7.43
2023-04-29T10:32:55.256Z,7.53
2023-04-29T10:35:27.669Z,7.97
2023-04-29T10:38:01.412Z,6.32
2023-04-29T10:40:39.821Z,6.95
2023-04-29T10:43:10.435Z,5.70
2023-04-29T10:45:41.164Z,5.30
2023-04-29T10:48:16.385Z,5.10
2023-04-29T10:50:52.901Z,5.13
2023-04-29T10:53:24.901Z,6.78
2023-04-29T10:56:02.637Z,5.82
2023-04-29T10:59:02.244Z,7.28
2023-04-29T11:01:53.869Z,5.40
2023-04-29T11:04:26.034Z,5.00
2023-04-29T11:06:58.249Z,5.20
2023-04-29T11:09:35.709Z,5.85
2023-04-29T11:12:08.407Z,12.82
2023-04-29T11:14:48.367Z,9.00
2023-04-29T11:17:23.621Z,8.80
2023-04-29T11:19:55.762Z,6.78
2023-04-29T11:22:26.505Z,7.63
2023-04-29T11:24:58.878Z,6.90
2023-04-29T11:27:35.557Z,6.32
2023-04-29T11:30:11.622Z,4.10
2023-04-29T11:32:44.474Z,2.92
2023-04-29T11:35:16.107Z,5.57
2023-04-29T11:37:48.351Z,3.13
2023-04-29T11:40:19.310Z,4.93
2023-04-29T11:42:51.769Z,2.55
2023-04-29T11:45:22.850Z,3.63
2023-04-29T11:47:55.657Z,3.15
2023-04-29T11:50:27.004Z,2.92
2023-04-29T11:53:00.131Z,3.45
2023-04-29T11:55:31.109Z,3.88
2023-04-29T11:58:02.220Z,3.70
2023-04-29T12:00:34.584Z,3.42
2023-04-29T12:03:10.044Z,2.40
2023-04-29T12:05:40.427Z,2.92
2023-04-29T12:08:11.298Z,3.33
2023-04-29T12:10:41.710Z,5.95
2023-04-29T12:13:12.996Z,4.30
2023-04-29T12:15:43.992Z,3.78
2023-04-29T12:18:15.273Z,4.20
2023-04-29T12:20:47.884Z,4.40
2023-04-29T12:23:31.124Z,3.55
2023-04-29T12:26:05.778Z,4.97
2023-04-29T12:28:38.164Z,4.13
2023-04-29T12:31:09.036Z,6.13
2023-04-29T12:33:40.735Z,2.40
2023-04-29T12:36:20.443Z,4.03
2023-04-29T12:38:52.585Z,2.88
2023-04-29T12:41:23.857Z,4.90
2023-04-29T12:43:55.046Z,4.53
2023-04-29T12:46:27.520Z,3.15
2023-04-29T12:48:58.141Z,4.10
2023-04-29T12:51:28.817Z,3.33
2023-04-29T12:53:59.730Z,2.65
2023-04-29T12:56:31.631Z,4.70
2023-04-29T12:59:12.627Z,3.78
2023-04-29T13:01:44.617Z,4.53
2023-04-29T13:04:15.388Z,2.72
2023-04-29T13:06:45.711Z,2.88
2023-04-29T13:09:18.907Z,3.13
2023-04-29T13:11:49.424Z,4.53
2023-04-29T13:14:20.509Z,3.03
2023-04-29T13:16:50.994Z,4.72
2023-04-29T13:19:34.760Z,2.15
2023-04-29T13:22:11.789Z,3.08
2023-04-29T13:24:42.479Z,3.58
2023-04-29T13:27:12.924Z,1.83
2023-04-29T13:29:43.610Z,2.28
2023-04-29T13:32:13.946Z,2.15
2023-04-29T13:34:45.134Z,2.58
2023-04-29T13:37:15.482Z,1.85
2023-04-29T13:39:47.957Z,3.60
2023-04-29T13:42:18.340Z,1.63
2023-04-29T13:44:53.166Z,1.20
2023-04-29T13:47:26.118Z,2.33
2023-04-29T13:50:36.608Z,2.78
2023-04-29T14:01:05.201Z,2.10
2023-04-29T14:03:21.678Z,3.00
2023-04-29T14:05:53.072Z,1.60
2023-04-29T14:08:35.857Z,1.52
2023-04-29T14:11:07.411Z,2.38
2023-04-29T14:13:38.566Z,2.35
2023-04-29T14:16:09.365Z,1.52
2023-04-29T14:18:40.229Z,2.88
2023-04-29T14:21:10.803Z,1.67
2023-04-29T14:23:41.328Z,2.05
2023-04-29T14:26:27.297Z,1.02
2023-04-29T14:29:00.417Z,0.75
2023-04-29T14:31:40.027Z,0.82
2023-04-29T14:34:10.494Z,1.85
2023-04-29T14:36:40.839Z,2.72
2023-04-29T14:39:11.085Z,4.10
2023-04-29T14:41:41.477Z,1.27
2023-04-29T14:44:13.480Z,2.05
2023-04-29T14:46:45.210Z,1.45
2023-04-29T14:49:16.011Z,1.35
2023-04-29T14:51:47.570Z,1.15
2023-04-29T14:54:18.426Z,2.42
2023-04-29T14:56:50.767Z,2.10
2023-04-29T14:59:21.106Z,1.80
2023-04-29T15:01:51.454Z,0.98
2023-04-29T15:04:21.873Z,3.38
2023-04-29T15:06:53.674Z,1.08
2023-04-29T15:09:25.326Z,0.57
2023-04-29T15:11:55.983Z,2.83
2023-04-29T15:14:26.348Z,2.03
2023-04-29T15:16:56.578Z,1.15
2023-04-29T15:19:29.135Z,0.75
2023-04-29T15:21:59.398Z,0.85
2023-04-29T15:24:29.626Z,2.67
2023-04-29T15:27:00.368Z,4.72
2023-04-29T15:29:31.183Z,2.53
2023-04-29T15:32:01.535Z,0.77
2023-04-29T15:34:33.353Z,1.40
2023-04-29T15:37:04.527Z,1.48
2023-04-29T15:39:35.027Z,3.00
2023-04-29T15:42:05.640Z,0.40
2023-04-29T15:44:37.045Z,0.75
2023-04-29T15:47:08.181Z,0.28
2023-04-29T15:49:39.816Z,0.20
2023-04-29T15:52:11.674Z,0.63
2023-04-29T15:54:44.205Z,0.20
2023-04-29T15:57:15.608Z,1.42
2023-04-29T15:59:47.487Z,1.48
2023-04-29T16:02:18.027Z,0.73
2023-04-29T16:04:48.355Z,0.50
2023-04-29T16:07:19.317Z,1.02
2023-04-29T16:09:50.250Z,0.47
2023-04-29T16:12:20.487Z,1.10
2023-04-29T16:14:50.862Z,1.17
2023-04-29T16:17:21.491Z,0.70
2023-04-29T16:19:51.950Z,0.75
2023-04-29T16:22:23.212Z,0.75
2023-04-29T16:24:53.622Z,1.20
2023-04-29T16:27:24.641Z,3.15
2023-04-29T16:29:55.795Z,2.67
2023-04-29T16:32:28.114Z,0.17
2023-04-29T16:35:00.130Z,1.25
2023-04-29T16:37:32.194Z,1.15
2023-04-29T16:40:02.935Z,1.67
2023-04-29T16:42:33.324Z,0.22
2023-04-29T16:45:04.385Z,0.95
2023-04-29T16:47:34.738Z,1.38
2023-04-29T16:50:06.242Z,0.88
2023-04-29T16:52:38.106Z,2.38
2023-04-29T16:55:10.292Z,2.25
2023-04-29T16:57:40.854Z,0.28
2023-04-29T17:00:15.317Z,0.30
2023-04-29T17:02:50.450Z,0.40
2023-04-29T17:05:22.341Z,0.30
2023-04-29T17:07:53.477Z,0.30
2023-04-29T17:10:23.876Z,1.13
2023-04-29T17:12:54.572Z,0.55
2023-04-29T17:15:25.417Z,1.23
2023-04-29T17:17:57.463Z,0.10
2023-04-29T17:20:28.143Z,0.20
2023-04-29T17:22:58.383Z,0.50
2023-04-29T17:25:28.637Z,0.20
2023-04-29T17:27:58.936Z,0.40
2023-04-29T17:30:29.353Z,0.32
2023-04-29T17:32:59.647Z,0.22
2023-04-29T17:35:29.934Z,0.28
2023-04-29T17:38:00.169Z,0.10
2023-04-29T17:40:30.653Z,0.40
2023-04-29T17:43:00.882Z,0.60
2023-04-29T17:45:31.193Z,1.73
2023-04-29T17:48:01.582Z,0.57
2023-04-29T17:50:32.069Z,0.40
2023-04-29T17:53:02.766Z,0.30
2023-04-29T17:55:33.094Z,0.98
2023-04-29T17:58:04.465Z,0.65
2023-04-29T18:00:37.235Z,0.80
2023-04-29T18:03:09.754Z,0.30
2023-04-29T18:05:40.536Z,0.22
2023-04-29T18:08:13.526Z,0.20
2023-04-29T18:10:44.204Z,0.77
2023-04-29T18:13:14.591Z,0.40
2023-04-29T18:15:45.437Z,0.75
2023-04-29T18:18:16.328Z,0.85
2023-04-29T18:20:47.091Z,0.68
2023-04-29T18:23:18.128Z,0.90
2023-04-29T18:25:49.595Z,0.00
2023-04-29T18:28:25.241Z,0.30
2023-04-29T18:30:57.722Z,0.30
2023-04-29T18:33:28.648Z,0.45
2023-04-29T18:35:59.585Z,0.13
2023-04-29T18:38:32.623Z,0.10
2023-04-29T18:41:03.443Z,1.42
2023-04-29T18:43:34.144Z,0.70
2023-04-29T18:46:05.243Z,0.10
2023-04-29T18:48:39.023Z,0.08
2023-04-29T18:51:10.160Z,0.40
2023-04-29T18:53:41.401Z,1.00
2023-04-29T18:56:11.762Z,1.13
2023-04-29T18:58:42.715Z,0.68
2023-04-29T19:01:12.951Z,1.83
2023-04-29T19:03:43.639Z,0.60
2023-04-29T19:06:13.855Z,0.63
2023-04-29T19:08:44.056Z,0.47
2023-04-29T19:11:14.236Z,0.70
2023-04-29T19:13:44.987Z,0.63
2023-04-29T19:16:15.303Z,0.03
2023-04-29T19:18:47.219Z,1.15
2023-04-29T19:21:17.712Z,0.73
2023-04-29T19:23:48.547Z,0.63
2023-04-29T19:26:18.982Z,0.57
2023-04-29T19:28:49.667Z,0.35
2023-04-29T19:31:20.572Z,1.42
2023-04-29T19:33:51.210Z,0.45
2023-04-29T19:36:21.765Z,0.38
2023-04-29T19:38:53.393Z,0.15
2023-04-29T19:41:23.816Z,0.57
2023-04-29T19:43:54.123Z,0.95
2023-04-29T19:46:24.557Z,0.30
2023-04-29T19:48:55.753Z,0.43
2023-04-29T19:51:26.454Z,0.30
2023-04-29T19:54:00.305Z,0.32
2023-04-29T19:56:31.395Z,0.43
2023-04-29T19:59:01.930Z,0.15
2023-04-29T20:01:33.058Z,0.88
2023-04-29T20:04:03.405Z,0.30
2023-04-29T20:06:36.499Z,1.48
2023-04-29T20:09:07.387Z,0.60
2023-04-29T20:11:38.208Z,0.47
2023-04-29T20:14:08.466Z,0.40
2023-04-29T20:16:38.819Z,0.60
2023-04-29T20:19:09.124Z,0.60
2023-04-29T20:21:41.420Z,1.65
2023-04-29T20:24:12.030Z,0.03
2023-04-29T20:26:42.321Z,0.20
2023-04-29T20:29:12.772Z,0.50
2023-04-29T20:31:43.057Z,0.28
2023-04-29T20:34:14.061Z,0.28
2023-04-29T20:36:44.330Z,0.10
2023-04-29T20:39:14.705Z,0.82
2023-04-29T20:41:45.360Z,0.52
2023-04-29T20:44:15.759Z,0.15
2023-04-29T20:46:47.842Z,0.38
2023-04-29T20:49:18.310Z,0.80
2023-04-29T20:51:51.302Z,1.25
2023-04-29T20:54:22.558Z,0.57
2023-04-29T20:56:54.082Z,0.50
2023-04-29T20:59:24.652Z,0.22
2023-04-29T21:01:55.275Z,0.50
2023-04-29T21:04:25.783Z,0.55
2023-04-29T21:06:56.412Z,0.30
2023-04-29T21:09:27.252Z,0.20
2023-04-29T21:12:01.452Z,2.28
2023-04-29T21:14:33.466Z,1.10
2023-04-29T21:17:05.832Z,0.10
2023-04-29T21:19:39.405Z,0.10
2023-04-29T21:22:09.814Z,1.20
2023-04-29T21:24:41.244Z,0.55
2023-04-29T21:27:11.517Z,0.55
2023-04-29T21:29:42.622Z,0.85
2023-04-29T21:32:13.274Z,0.45
2023-04-29T21:34:44.206Z,0.03
2023-04-29T21:37:15.027Z,0.00
2023-04-29T21:39:45.830Z,0.10
2023-04-29T21:42:16.898Z,0.73
2023-04-29T21:44:48.776Z,0.35
2023-04-29T21:47:19.618Z,0.20
2023-04-29T21:49:51.671Z,0.10
2023-04-29T21:52:23.125Z,0.10
2023-04-29T21:54:53.996Z,0.08
2023-04-29T21:57:35.655Z,0.25
2023-04-29T22:00:34.813Z,0.40
2023-04-29T22:03:12.389Z,1.20
2023-04-29T22:05:43.010Z,0.47
2023-04-29T22:08:14.287Z,0.10
2023-04-29T22:10:46.600Z,0.43
2023-04-29T22:13:18.744Z,0.20
2023-04-29T22:15:49.607Z,0.15
2023-04-29T22:18:21.592Z,0.90
2023-04-29T22:20:53.411Z,0.47
2023-04-29T22:23:24.806Z,1.52
2023-04-29T22:25:55.724Z,0.30
2023-04-29T22:28:26.801Z,0.10
2023-04-29T22:30:59.238Z,0.32
2023-04-29T22:33:30.114Z,0.60
2023-04-29T22:36:01.009Z,0.63
2023-04-29T22:38:34.868Z,0.03
2023-04-29T22:41:06.227Z,0.50
2023-04-29T22:43:36.890Z,0.20
2023-04-29T22:46:08.712Z,0.17
2023-04-29T22:48:39.401Z,0.10
2023-04-29T22:51:10.978Z,0.00
2023-04-29T22:53:43.459Z,0.25
2023-04-29T22:56:14.257Z,0.40
2023-04-29T22:58:44.874Z,1.45
2023-04-29T23:01:15.556Z,0.20
2023-04-29T23:03:47.522Z,0.43
2023-04-29T23:06:19.444Z,0.10
2023-04-29T23:08:51.488Z,1.00
2023-04-29T23:11:22.392Z,0.38
2023-04-29T23:13:55.166Z,0.20
2023-04-29T23:16:31.663Z,0.00
2023-04-29T23:19:02.585Z,1.42
2023-04-29T23:21:34.529Z,0.32
2023-04-29T23:24:06.446Z,0.32
2023-04-29T23:26:37.166Z,0.10
2023-04-29T23:29:09.258Z,0.45
2023-04-29T23:31:39.921Z,0.17
2023-04-29T23:34:11.506Z,0.95
2023-04-29T23:36:42.744Z,0.17
2023-04-29T23:39:13.829Z,0.40
2023-04-29T23:41:44.538Z,0.80
2023-04-29T23:44:15.347Z,0.40
2023-04-29T23:46:46.014Z,0.55
2023-04-29T23:49:17.983Z,0.43
2023-04-29T23:51:49.267Z,0.82
2023-04-29T23:54:20.044Z,0.30
2023-04-29T23:56:51.051Z,0.13
2023-04-29T23:59:21.804Z,0.60
